Aledo, IL (61231)

12:11 AM CST on December 11, 2016 (GMT -0600)
NW Aledo Illinois | | Change Station

Elev 720 ft 41.21 °N, 90.76 °W | Updated 11 minutes ago

Overcast
Overcast
27.2 °F
Feels Like 23 °F
N
4.0
Wind Variable Wind from South
Gusts 11.0 mph

Today
High -- | Low -- °F
--% Chance of Precip.
Yesterday
High -- | Low -- °F
Precip. -- in
Pressure 30.18 in
Visibility 10.0 miles
Clouds Overcast 6000 ft
Windchill 23 °F
Dew Point 21 °F
Humidity 76%
Rainfall 0.09 in
Snow Depth Not available.
7:18 AM 4:34 PM
Waxing Gibbous, 89% visible
METAR KMLI 110552Z AUTO 12009KT 10SM OVC060 M03/M07 A3015 RMK AO2 SLP218 T10331067 11033 21050 410281067 56023
Pressure 30.18 in
Visibility 10.0 miles
Clouds Overcast 6000 ft
Windchill 23 °F
Dew Point 21 °F
Humidity 76%
Rainfall 0.09 in
Snow Depth Not available.
7:18 AM 4:34 PM
Waxing Gibbous, 89% visible
METAR KMLI 110552Z AUTO 12009KT 10SM OVC060 M03/M07 A3015 RMK AO2 SLP218 T10331067 11033 21050 410281067 56023

10-Day Weather Forecast

Almanac

Astronomy

Dec. 11, 2016 Rise Set
Actual Time
Civil Twilight
Nautical Twilight
Astronomical Twilight
Moon
Length of Visible Light
Length of Day
Tomorrow will be .
, % of the Moon is Illuminated

Today's Extremes

State Highs State Lows

Community

WunderPhotos

Upload Photos

1,956,706 photos uploaded!

WunderBlog® & News

Nearby

Air Quality

  Air Quality AQ Index Pollutant
Not available.

Snow Depth

Station Depth Elevation

Earthquake Activity

City Distance Mag. Time & Date
Minimum magnitude displayed is 2.5.

Coastal Water Temperatures

Place Temperature

Stations

Nearby Weather Stations

Station Location Temp. Windchill Dew Point Humidity Wind Precip. Elev Updated Type
                   

Watches & Warnings

There are currently no watches in effect.